Time;durP1;ratioP1;P1;durP2;ratioP2;P2;SDS_P1;SDS_P2;PMS_P1;PMS_P2;Temp;Humidity;BMP_temperature;BMP_pressure;BME280_temperature;BME280_humidity;BME280_pressure;Samples;Min_cycle;Max_cycle;Signal;HPM_P1;HPM_P2
2022/12/11 00:00:08;;;;;;;23.60;14.50;;;5.50;99.90;;;;;;5030283;28;20501;-75
2022/12/11 00:02:34;;;;;;;25.92;15.43;;;5.50;99.90;;;;;;5012167;28;20240;-67
2022/12/11 00:05:00;;;;;;;22.50;15.70;;;5.50;99.90;;;;;;5029183;28;21103;-66
2022/12/11 00:07:25;;;;;;;28.67;15.33;;;5.50;99.90;;;;;;5029034;28;20200;-67
2022/12/11 00:09:51;;;;;;;24.73;15.73;;;5.40;99.90;;;;;;5025275;28;20208;-69
2022/12/11 00:12:17;;;;;;;24.47;14.93;;;5.40;99.90;;;;;;5029763;28;20226;-70
2022/12/11 00:14:43;;;;;;;26.70;15.23;;;5.40;99.90;;;;;;5028142;28;20194;-77
2022/12/11 00:17:08;;;;;;;27.57;16.17;;;5.40;99.90;;;;;;5028216;28;20282;-69
2022/12/11 00:19:34;;;;;;;30.20;16.83;;;5.40;99.90;;;;;;5029303;28;20265;-67
2022/12/11 00:22:00;;;;;;;23.93;14.90;;;5.30;99.90;;;;;;5028376;28;20762;-67
2022/12/11 00:24:26;;;;;;;30.90;15.80;;;5.30;99.90;;;;;;5026543;28;20537;-67
2022/12/11 00:26:51;;;;;;;28.40;16.20;;;5.40;99.90;;;;;;5026315;28;20436;-68
2022/12/11 00:29:17;;;;;;;28.23;15.70;;;5.40;99.90;;;;;;5028680;28;20194;-66
2022/12/11 00:31:43;;;;;;;28.40;16.13;;;5.50;99.90;;;;;;5030913;28;20206;-66
2022/12/11 00:34:10;;;;;;;30.77;16.27;;;5.40;99.90;;;;;;5031065;28;20635;-66
2022/12/11 00:36:37;;;;;;;22.90;14.38;;;5.40;99.90;;;;;;5033522;28;20235;-66
2022/12/11 00:39:03;;;;;;;30.95;17.80;;;5.40;99.90;;;;;;5031166;28;20527;-69
2022/12/11 00:41:30;;;;;;;28.60;17.10;;;5.40;99.90;;;;;;5029801;28;20191;-66
2022/12/11 00:43:55;;;;;;;32.03;16.65;;;5.40;99.90;;;;;;5030163;28;20651;-66
2022/12/11 00:46:21;;;;;;;28.93;16.20;;;5.50;99.90;;;;;;5033199;28;20250;-66
2022/12/11 00:48:48;;;;;;;24.67;16.70;;;5.50;99.90;;;;;;5031598;28;20185;-66
2022/12/11 00:51:15;;;;;;;28.27;16.13;;;5.50;99.90;;;;;;5031376;28;20183;-66
2022/12/11 00:53:41;;;;;;;28.35;15.90;;;5.50;99.90;;;;;;5031230;28;20592;-65
2022/12/11 00:56:15;;;;;;;26.03;16.20;;;5.40;99.90;;;;;;5032086;28;20229;-65
2022/12/11 00:58:41;;;;;;;26.17;16.23;;;5.40;99.90;;;;;;5031098;28;20170;-66
2022/12/11 01:01:12;;;;;;;28.40;15.77;;;5.30;99.90;;;;;;5032439;28;20201;-65
2022/12/11 01:03:38;;;;;;;30.10;16.40;;;5.30;99.90;;;;;;5031330;28;20177;-73
2022/12/11 01:06:04;;;;;;;27.35;15.40;;;5.30;99.90;;;;;;5031053;28;20186;-65
2022/12/11 01:08:30;;;;;;;29.63;17.60;;;5.20;99.90;;;;;;5028963;28;20192;-64
2022/12/11 01:11:04;;;;;;;28.88;15.35;;;5.20;99.90;;;;;;5028027;28;20205;-65
2022/12/11 01:13:30;;;;;;;27.75;15.65;;;5.20;99.90;;;;;;5030195;28;20190;-64
2022/12/11 01:15:56;;;;;;;29.20;16.10;;;5.20;99.90;;;;;;5031192;28;20601;-64
2022/12/11 01:18:22;;;;;;;29.20;17.00;;;5.20;99.90;;;;;;5030731;28;20210;-64
2022/12/11 01:20:48;;;;;;;25.25;15.90;;;5.20;99.90;;;;;;5031576;28;20179;-64
2022/12/11 01:23:16;;;;;;;27.23;15.50;;;5.20;99.90;;;;;;5031636;28;20229;-64
2022/12/11 01:25:42;;;;;;;27.23;15.15;;;5.20;99.90;;;;;;5029738;28;20627;-71
2022/12/11 01:28:08;;;;;;;30.13;16.88;;;5.30;99.90;;;;;;5023557;28;20182;-65
2022/12/11 01:30:34;;;;;;;31.23;17.10;;;5.20;99.90;;;;;;5018113;28;20171;-65
2022/12/11 01:33:00;;;;;;;25.83;15.65;;;5.30;99.90;;;;;;5037282;28;20201;-64
2022/12/11 01:35:26;;;;;;;32.60;16.07;;;5.30;99.90;;;;;;5044600;28;20170;-65
2022/12/11 01:37:52;;;;;;;29.98;16.55;;;5.20;99.90;;;;;;5028126;28;20297;-74
2022/12/11 01:40:19;;;;;;;27.23;15.57;;;5.20;99.90;;;;;;5030452;28;20260;-65
2022/12/11 01:42:45;;;;;;;24.70;15.00;;;5.20;99.90;;;;;;5022303;28;20178;-65
2022/12/11 01:45:37;;;;;;;24.87;16.10;;;5.20;99.90;;;;;;5030750;28;20179;-65
2022/12/11 01:48:10;;;;;;;25.98;14.38;;;5.30;99.90;;;;;;5030420;28;20623;-70
2022/12/11 01:50:41;;;;;;;27.08;14.57;;;5.20;99.90;;;;;;5031900;28;20630;-64
2022/12/11 01:53:10;;;;;;;25.60;15.02;;;5.30;99.90;;;;;;5032059;28;20198;-65
2022/12/11 01:55:38;;;;;;;30.38;15.30;;;5.30;99.90;;;;;;5035244;28;20626;-65
2022/12/11 01:58:05;;;;;;;28.30;15.23;;;5.30;99.90;;;;;;5035542;28;20166;-65
2022/12/11 02:00:30;;;;;;;21.52;12.98;;;5.30;99.90;;;;;;5019135;28;20187;-65
2022/12/11 02:02:56;;;;;;;27.07;15.90;;;5.30;99.90;;;;;;5020317;28;20175;-65
2022/12/11 02:05:22;;;;;;;25.43;14.30;;;5.30;99.90;;;;;;5036108;28;20190;-65
2022/12/11 02:07:52;;;;;;;19.90;12.83;;;5.30;99.90;;;;;;5034712;28;20209;-65
2022/12/11 02:10:18;;;;;;;25.58;15.32;;;5.30;99.90;;;;;;5035147;28;20181;-65
2022/12/11 02:12:59;;;;;;;28.90;15.03;;;5.30;99.90;;;;;;5035882;28;20206;-73
2022/12/11 02:15:41;;;;;;;27.27;14.48;;;5.30;99.90;;;;;;5035254;28;20570;-65
2022/12/11 02:18:40;;;;;;;23.90;13.80;;;5.30;99.90;;;;;;5034530;28;20178;-65
2022/12/11 02:21:05;;;;;;;26.60;14.07;;;5.30;99.90;;;;;;5034308;28;20637;-65
2022/12/11 02:23:45;;;;;;;25.60;14.00;;;5.30;99.90;;;;;;5035011;28;20223;-65
2022/12/11 02:26:33;;;;;;;25.25;13.13;;;5.20;99.90;;;;;;5035457;28;20213;-65
2022/12/11 02:29:02;;;;;;;21.75;13.10;;;5.30;99.90;;;;;;5033361;28;20631;-65
2022/12/11 02:31:59;;;;;;;26.70;14.27;;;5.40;99.90;;;;;;5034765;28;20284;-65
2022/12/11 02:34:36;;;;;;;25.95;14.25;;;5.30;99.90;;;;;;5034741;28;20186;-64
2022/12/11 02:37:06;;;;;;;27.40;14.13;;;5.30;99.90;;;;;;5034190;28;20173;-69
2022/12/11 02:39:37;;;;;;;23.20;13.45;;;5.40;99.90;;;;;;5025181;28;20337;-65
2022/12/11 02:42:03;;;;;;;24.92;13.75;;;5.40;99.90;;;;;;5034167;28;20207;-65
2022/12/11 02:44:32;;;;;;;28.83;14.38;;;5.30;99.90;;;;;;5033767;28;20175;-65
2022/12/11 02:46:59;;;;;;;26.40;14.55;;;5.30;99.90;;;;;;5034865;28;20268;-65
2022/12/11 02:49:26;;;;;;;25.40;14.70;;;5.30;99.90;;;;;;5033693;28;20273;-65
2022/12/11 02:51:55;;;;;;;30.80;15.73;;;5.20;99.90;;;;;;5033819;28;20267;-65
2022/12/11 02:54:32;;;;;;;34.10;16.50;;;5.30;99.90;;;;;;5033324;28;20198;-65
2022/12/11 02:57:03;;;;;;;32.88;17.42;;;5.40;99.90;;;;;;5034640;28;20513;-65
2022/12/11 02:59:34;;;;;;;31.70;16.42;;;5.30;99.90;;;;;;5034113;28;20206;-65
2022/12/11 03:02:01;;;;;;;32.58;16.80;;;5.30;99.90;;;;;;5032304;28;20209;-65
2022/12/11 03:04:28;;;;;;;32.65;15.73;;;5.20;99.90;;;;;;5033241;28;20254;-65
2022/12/11 03:07:00;;;;;;;35.42;16.20;;;5.30;99.90;;;;;;5033042;28;20648;-65
2022/12/11 03:09:27;;;;;;;35.40;18.73;;;5.30;99.90;;;;;;5034041;28;20178;-64
2022/12/11 03:11:52;;;;;;;33.88;16.80;;;5.30;99.90;;;;;;5032743;28;20609;-65
2022/12/11 03:14:18;;;;;;;28.80;15.20;;;5.40;99.90;;;;;;5034903;28;20205;-65
2022/12/11 03:17:13;;;;;;;32.50;16.20;;;5.40;99.90;;;;;;5033910;28;20218;-65
2022/12/11 03:19:47;;;;;;;29.98;16.30;;;5.40;99.90;;;;;;5033938;28;20402;-65
2022/12/11 03:22:24;;;;;;;32.10;15.75;;;5.40;99.90;;;;;;5033025;28;20304;-65
2022/12/11 03:25:08;;;;;;;30.85;15.60;;;5.40;99.90;;;;;;5034142;28;20253;-65
2022/12/11 03:27:40;;;;;;;33.17;18.20;;;5.40;99.90;;;;;;5032799;28;20182;-65
2022/12/11 03:30:10;;;;;;;29.17;17.52;;;5.40;99.90;;;;;;5032383;28;20174;-65
2022/12/11 03:32:48;;;;;;;30.33;15.48;;;5.40;99.90;;;;;;5034507;28;20190;-65
2022/12/11 03:35:20;;;;;;;32.22;18.23;;;5.40;99.90;;;;;;5031234;28;20189;-65
2022/12/11 03:37:48;;;;;;;28.40;16.27;;;5.40;99.90;;;;;;5031661;28;20563;-65
2022/12/11 03:40:17;;;;;;;30.60;16.48;;;5.50;99.90;;;;;;5033745;28;20178;-64
2022/12/11 03:42:48;;;;;;;29.63;16.23;;;5.50;99.90;;;;;;5033628;28;20186;-65
2022/12/11 03:45:18;;;;;;;33.00;18.13;;;5.50;99.90;;;;;;5033274;28;20179;-65
2022/12/11 03:47:45;;;;;;;30.63;16.25;;;5.50;99.90;;;;;;5034265;28;20174;-65
2022/12/11 03:50:14;;;;;;;36.70;17.27;;;5.50;99.90;;;;;;5032917;28;20186;-65
2022/12/11 03:52:41;;;;;;;31.50;15.98;;;5.50;99.90;;;;;;5033489;28;20210;-65
2022/12/11 03:55:08;;;;;;;31.45;16.80;;;5.50;99.90;;;;;;5033042;28;20171;-67
2022/12/11 03:57:36;;;;;;;36.92;17.50;;;5.50;99.90;;;;;;5032735;28;20183;-65
2022/12/11 04:00:06;;;;;;;34.35;16.17;;;5.50;99.90;;;;;;5032903;28;20213;-65
2022/12/11 04:02:32;;;;;;;36.65;18.20;;;5.60;99.90;;;;;;5033240;28;20210;-65
2022/12/11 04:04:58;;;;;;;33.13;17.20;;;5.60;99.90;;;;;;5032372;28;20225;-65
2022/12/11 04:07:23;;;;;;;29.53;15.90;;;5.60;99.90;;;;;;5017291;28;20270;-65
2022/12/11 04:09:49;;;;;;;35.20;17.07;;;5.50;99.90;;;;;;5018682;28;20197;-65
2022/12/11 04:12:15;;;;;;;33.67;16.27;;;5.60;99.90;;;;;;5032448;28;20634;-65
2022/12/11 04:26:09;;;;;;;36.35;17.92;;;5.60;99.90;;;;;;5031585;28;20240;-66
2022/12/11 04:28:35;;;;;;;34.05;18.88;;;5.40;99.90;;;;;;5013814;28;20324;-65
2022/12/11 04:31:02;;;;;;;33.05;19.38;;;5.40;99.90;;;;;;5029292;28;20179;-65
2022/12/11 04:33:28;;;;;;;31.38;17.63;;;5.40;99.90;;;;;;5030955;28;20206;-65
2022/12/11 04:35:57;;;;;;;36.92;19.83;;;5.40;99.90;;;;;;5031959;28;20178;-65
2022/12/11 04:38:23;;;;;;;38.25;17.88;;;5.40;99.90;;;;;;5032609;28;20214;-65
2022/12/11 04:40:49;;;;;;;33.13;18.27;;;5.40;99.90;;;;;;5031413;28;20213;-65
2022/12/11 04:43:14;;;;;;;36.93;18.40;;;5.40;99.90;;;;;;5032000;28;20182;-65
2022/12/11 04:45:40;;;;;;;35.57;18.77;;;5.30;99.90;;;;;;5032660;28;20186;-65
2022/12/11 04:48:06;;;;;;;34.60;17.87;;;5.30;99.90;;;;;;5031253;28;20174;-65
2022/12/11 04:50:31;;;;;;;35.00;18.23;;;5.30;99.90;;;;;;5031908;28;20175;-65
2022/12/11 04:52:57;;;;;;;35.83;18.07;;;5.30;99.90;;;;;;5031255;28;20209;-65
2022/12/11 04:55:23;;;;;;;33.87;18.27;;;5.40;99.90;;;;;;5032169;28;20270;-65
2022/12/11 04:57:49;;;;;;;38.15;17.67;;;5.40;99.90;;;;;;5031736;28;20719;-65
2022/12/11 05:00:16;;;;;;;35.90;17.47;;;5.40;99.90;;;;;;5031493;28;20270;-65
2022/12/11 05:02:41;;;;;;;32.63;16.13;;;5.40;99.90;;;;;;5031261;28;20218;-65
2022/12/11 05:05:09;;;;;;;31.57;16.90;;;5.30;99.90;;;;;;5032303;28;20202;-65
2022/12/11 05:07:36;;;;;;;31.23;16.75;;;5.30;99.90;;;;;;5032020;28;20267;-65
2022/12/11 05:10:03;;;;;;;31.02;17.27;;;5.40;99.90;;;;;;5030672;28;20182;-65
2022/12/11 05:12:30;;;;;;;36.03;16.45;;;5.40;99.90;;;;;;5032774;28;20203;-65
2022/12/11 05:14:55;;;;;;;27.95;15.57;;;5.40;99.90;;;;;;5031030;28;20240;-69
2022/12/11 05:17:21;;;;;;;31.60;15.70;;;5.40;99.90;;;;;;5022982;28;20258;-65
2022/12/11 05:19:52;;;;;;;31.27;16.35;;;5.40;99.90;;;;;;5012798;28;20175;-70
2022/12/11 05:22:18;;;;;;;29.70;15.48;;;5.40;99.90;;;;;;5027777;28;20222;-65
2022/12/11 05:24:44;;;;;;;30.53;15.60;;;5.40;99.90;;;;;;5031990;28;20668;-65
2022/12/11 05:27:11;;;;;;;26.92;15.57;;;5.40;99.90;;;;;;5029803;28;20265;-65
2022/12/11 05:29:36;;;;;;;27.80;15.35;;;5.40;99.90;;;;;;5032615;28;20167;-65
2022/12/11 05:32:02;;;;;;;32.43;16.50;;;5.40;99.90;;;;;;5031076;28;20697;-65
2022/12/11 05:34:28;;;;;;;30.05;16.63;;;5.30;99.90;;;;;;5030406;28;20187;-65
2022/12/11 05:36:54;;;;;;;26.20;14.47;;;5.30;99.90;;;;;;5032356;28;20174;-72
2022/12/11 05:39:20;;;;;;;27.87;15.30;;;5.40;99.90;;;;;;5031537;28;20173;-65
2022/12/11 05:41:45;;;;;;;41.20;16.90;;;5.40;99.90;;;;;;5031751;28;20538;-65
2022/12/11 05:44:12;;;;;;;32.87;15.67;;;5.40;99.90;;;;;;5031041;28;20202;-65
2022/12/11 05:46:38;;;;;;;24.83;14.48;;;5.30;99.90;;;;;;5032547;28;20183;-65
2022/12/11 05:49:04;;;;;;;28.77;15.48;;;5.40;99.90;;;;;;5027837;28;20240;-65
2022/12/11 05:51:33;;;;;;;27.87;14.83;;;5.40;99.90;;;;;;5028289;28;20182;-65
2022/12/11 05:53:59;;;;;;;30.00;16.02;;;5.40;99.90;;;;;;5031684;28;20409;-65
2022/12/11 05:56:28;;;;;;;32.13;16.23;;;5.40;99.90;;;;;;5030560;28;20182;-65
2022/12/11 05:58:54;;;;;;;28.40;15.60;;;5.40;99.90;;;;;;5031031;28;20577;-65
2022/12/11 06:01:29;;;;;;;25.42;14.02;;;5.50;99.90;;;;;;5030946;28;20305;-65
2022/12/11 06:03:55;;;;;;;27.95;13.85;;;5.40;99.90;;;;;;5031471;28;20178;-65
2022/12/11 06:06:22;;;;;;;29.02;14.65;;;5.50;99.90;;;;;;5031744;28;20254;-65
2022/12/11 06:08:55;;;;;;;26.50;14.80;;;5.50;99.90;;;;;;5031585;28;20166;-65
2022/12/11 06:11:22;;;;;;;28.45;15.32;;;5.50;99.90;;;;;;5031254;28;20567;-66
2022/12/11 06:13:48;;;;;;;27.35;14.68;;;5.50;99.90;;;;;;5047460;28;20183;-65
2022/12/11 06:16:14;;;;;;;27.80;14.40;;;5.50;99.90;;;;;;5030870;28;20182;-65
2022/12/11 06:18:42;;;;;;;25.43;13.07;;;5.50;99.90;;;;;;5031731;28;20189;-65
2022/12/11 06:21:29;;;;;;;25.02;13.40;;;5.50;99.90;;;;;;5030130;28;20490;-65
2022/12/11 06:23:57;;;;;;;21.67;12.30;;;5.50;99.90;;;;;;5029506;28;20214;-65
2022/12/11 06:26:22;;;;;;;20.95;11.85;;;5.40;99.90;;;;;;5030741;28;20190;-65
2022/12/11 06:28:49;;;;;;;18.93;12.20;;;5.40;99.90;;;;;;5032370;28;20175;-65
2022/12/11 06:31:15;;;;;;;18.75;11.60;;;5.40;99.90;;;;;;5029784;28;20170;-65
2022/12/11 06:33:41;;;;;;;19.75;11.77;;;5.50;99.90;;;;;;5028550;28;20179;-65
2022/12/11 06:36:15;;;;;;;19.10;11.77;;;5.50;99.90;;;;;;5031471;28;20171;-65
2022/12/11 06:38:41;;;;;;;17.70;11.25;;;5.50;99.90;;;;;;5030372;28;20642;-65
2022/12/11 06:41:07;;;;;;;16.33;10.85;;;5.50;99.90;;;;;;5032383;28;20529;-65
2022/12/11 06:43:35;;;;;;;15.35;11.15;;;5.60;99.90;;;;;;5035576;28;20207;-65
2022/12/11 06:46:12;;;;;;;15.43;9.95;;;5.60;99.90;;;;;;5033040;28;20243;-69
2022/12/11 06:48:38;;;;;;;12.45;8.98;;;5.60;99.90;;;;;;5033667;28;20178;-65
2022/12/11 06:51:05;;;;;;;13.88;8.68;;;5.70;99.90;;;;;;5032927;28;20190;-65
2022/12/11 06:53:31;;;;;;;10.75;8.93;;;5.60;99.90;;;;;;5034990;28;20217;-65
2022/12/11 06:56:08;;;;;;;12.40;8.80;;;5.60;99.90;;;;;;5032077;28;20372;-65
2022/12/11 06:58:35;;;;;;;13.65;9.18;;;5.50;99.90;;;;;;5033664;28;20228;-65
2022/12/11 07:01:03;;;;;;;9.50;8.05;;;5.60;99.90;;;;;;5032836;28;20258;-76
2022/12/11 07:03:28;;;;;;;12.45;8.45;;;5.60;99.90;;;;;;5033864;28;20186;-64
2022/12/11 07:06:00;;;;;;;12.60;9.53;;;5.60;99.90;;;;;;5032970;28;20189;-65
2022/12/11 07:08:28;;;;;;;12.25;9.25;;;5.60;99.90;;;;;;5029742;28;20185;-65
2022/12/11 07:10:54;;;;;;;15.15;10.23;;;5.60;99.90;;;;;;5047316;28;20641;-65
2022/12/11 07:13:19;;;;;;;15.27;9.90;;;5.70;99.90;;;;;;5032317;28;20206;-65
2022/12/11 07:15:45;;;;;;;15.67;10.80;;;5.70;99.90;;;;;;5033195;28;20190;-65
2022/12/11 07:18:11;;;;;;;17.37;11.13;;;5.70;99.90;;;;;;5034294;28;20171;-65
2022/12/11 07:20:37;;;;;;;17.63;10.33;;;5.70;99.90;;;;;;5027869;28;20588;-65
2022/12/11 07:23:02;;;;;;;13.50;9.50;;;5.70;99.90;;;;;;5031863;28;20550;-76
2022/12/11 07:25:28;;;;;;;15.57;8.90;;;5.70;99.90;;;;;;5032930;28;20631;-65
2022/12/11 07:27:54;;;;;;;13.13;9.50;;;5.70;99.90;;;;;;5038060;28;20187;-65
2022/12/11 07:30:20;;;;;;;15.60;10.90;;;5.70;99.90;;;;;;5030457;28;20190;-65
2022/12/11 07:32:45;;;;;;;14.17;10.53;;;5.70;99.90;;;;;;5029689;28;20202;-64
2022/12/11 07:35:11;;;;;;;13.73;9.63;;;5.70;99.90;;;;;;5032289;28;20202;-65
2022/12/11 07:37:40;;;;;;;15.03;9.30;;;5.70;99.90;;;;;;5032245;28;20178;-65
2022/12/11 07:40:06;;;;;;;19.27;10.05;;;5.70;99.90;;;;;;5030714;28;20543;-73
2022/12/11 07:42:32;;;;;;;17.50;10.05;;;5.80;99.90;;;;;;5027721;28;20214;-67
2022/12/11 07:44:58;;;;;;;15.67;10.43;;;5.80;99.90;;;;;;5031511;28;20265;-65
2022/12/11 07:47:23;;;;;;;14.57;10.07;;;5.90;99.90;;;;;;5032147;28;20272;-65
2022/12/11 07:49:49;;;;;;;16.37;10.10;;;5.90;99.90;;;;;;5032862;28;20646;-64
2022/12/11 07:52:15;;;;;;;15.07;10.03;;;5.80;99.90;;;;;;5032111;28;20724;-65
2022/12/11 07:54:40;;;;;;;16.00;9.73;;;5.80;99.90;;;;;;5032802;28;20194;-65
2022/12/11 07:57:06;;;;;;;15.07;10.17;;;5.90;99.90;;;;;;5033092;28;20207;-73
2022/12/11 07:59:32;;;;;;;15.57;10.50;;;5.90;99.90;;;;;;5032180;28;20190;-65
2022/12/11 08:01:57;;;;;;;16.37;10.20;;;5.90;99.90;;;;;;5032336;28;20198;-65
2022/12/11 08:04:23;;;;;;;15.97;11.20;;;5.90;99.90;;;;;;5031804;28;20221;-65
2022/12/11 08:06:49;;;;;;;13.93;10.30;;;5.90;99.90;;;;;;5011750;28;20654;-64
2022/12/11 08:09:15;;;;;;;12.17;10.50;;;5.90;99.90;;;;;;5023699;28;20190;-65
2022/12/11 08:11:40;;;;;;;13.65;10.40;;;5.80;98.90;;;;;;5031173;28;20222;-65
2022/12/11 08:14:07;;;;;;;14.10;9.70;;;5.70;99.40;;;;;;5031478;28;20208;-72
2022/12/11 08:16:33;;;;;;;14.82;11.27;;;5.70;99.10;;;;;;5028870;28;20210;-65
2022/12/11 08:18:59;;;;;;;13.07;9.43;;;5.70;99.40;;;;;;5030482;28;20634;-65
2022/12/11 08:21:27;;;;;;;12.00;9.10;;;5.80;99.60;;;;;;5030653;28;20436;-67
2022/12/11 08:23:53;;;;;;;15.93;9.88;;;5.70;99.40;;;;;;5031611;28;20436;-65
2022/12/11 08:26:23;;;;;;;12.20;9.48;;;5.70;99.60;;;;;;5030553;28;20195;-65
2022/12/11 08:28:49;;;;;;;12.07;8.98;;;5.70;99.60;;;;;;5031193;28;20178;-65
2022/12/11 08:31:16;;;;;;;11.07;8.77;;;5.80;99.50;;;;;;5022443;28;20638;-65
2022/12/11 08:33:43;;;;;;;11.15;8.52;;;5.80;99.30;;;;;;5024160;28;20190;-65
2022/12/11 08:36:11;;;;;;;17.20;10.57;;;5.80;99.30;;;;;;5031691;28;20185;-65
2022/12/11 08:38:38;;;;;;;12.48;8.90;;;5.80;99.50;;;;;;5030939;28;20189;-65
2022/12/11 08:41:18;;;;;;;14.77;11.40;;;5.80;99.70;;;;;;5029991;28;20231;-65
2022/12/11 08:43:44;;;;;;;15.90;10.77;;;5.80;99.40;;;;;;5039192;28;20190;-64
2022/12/11 08:46:11;;;;;;;11.60;9.45;;;5.80;99.60;;;;;;5046656;28;20194;-65
2022/12/11 08:48:39;;;;;;;13.50;9.23;;;5.80;99.60;;;;;;5033036;28;20187;-64
2022/12/11 08:51:07;;;;;;;13.18;9.73;;;5.80;99.20;;;;;;5030233;28;20189;-65
2022/12/11 08:53:33;;;;;;;11.27;7.80;;;5.80;99.10;;;;;;5031701;28;20566;-65
2022/12/11 08:56:04;;;;;;;9.23;7.87;;;5.80;99.20;;;;;;5033125;28;20236;-70
2022/12/11 08:58:32;;;;;;;12.30;8.20;;;5.80;99.10;;;;;;5031442;28;20413;-65
2022/12/11 09:00:57;;;;;;;12.50;9.10;;;5.70;99.40;;;;;;5031343;28;20538;-65
2022/12/11 09:03:24;;;;;;;11.83;7.90;;;5.70;99.50;;;;;;5030251;28;20179;-70
2022/12/11 09:05:50;;;;;;;12.75;8.13;;;5.70;99.30;;;;;;5031772;28;20182;-66
2022/12/11 09:08:15;;;;;;;10.20;7.43;;;5.70;99.30;;;;;;5024786;28;20509;-65
2022/12/11 09:10:41;;;;;;;14.37;9.00;;;5.70;99.40;;;;;;5027792;28;20191;-65
2022/12/11 09:13:07;;;;;;;10.40;7.30;;;5.60;99.40;;;;;;5029777;28;20820;-73
2022/12/11 09:15:33;;;;;;;11.17;7.63;;;5.70;99.80;;;;;;5022696;28;20623;-65
2022/12/11 09:17:58;;;;;;;12.33;8.23;;;5.70;99.90;;;;;;5022133;28;20198;-65
2022/12/11 09:20:24;;;;;;;11.50;7.50;;;5.70;99.90;;;;;;5027695;28;20502;-65
2022/12/11 09:22:50;;;;;;;12.40;8.30;;;5.70;99.80;;;;;;5021723;28;20360;-65
2022/12/11 09:25:15;;;;;;;10.90;8.73;;;5.70;99.70;;;;;;5022604;28;20615;-65
2022/12/11 09:27:41;;;;;;;13.33;9.17;;;5.70;99.70;;;;;;5025749;28;20592;-65
2022/12/11 09:30:08;;;;;;;9.67;7.83;;;5.70;99.80;;;;;;5024858;28;20628;-65
2022/12/11 09:32:33;;;;;;;15.52;8.60;;;5.80;99.60;;;;;;5020939;28;20195;-72
2022/12/11 09:34:59;;;;;;;10.73;8.10;;;5.80;99.20;;;;;;5026468;28;20198;-65
2022/12/11 09:37:25;;;;;;;11.20;7.77;;;5.80;99.00;;;;;;5022091;28;20178;-65
2022/12/11 09:39:50;;;;;;;12.77;8.27;;;5.80;98.80;;;;;;5020883;28;20635;-65
2022/12/11 09:42:25;;;;;;;9.83;7.10;;;5.80;98.90;;;;;;5030450;28;20186;-65
2022/12/11 09:44:57;;;;;;;11.63;7.93;;;5.70;98.10;;;;;;5031547;28;20253;-65
2022/12/11 09:47:39;;;;;;;11.57;7.90;;;5.50;98.30;;;;;;5031593;28;20167;-65
2022/12/11 09:50:08;;;;;;;11.80;8.27;;;5.50;99.30;;;;;;5031705;28;20182;-65
2022/12/11 09:52:53;;;;;;;10.43;8.40;;;5.60;99.60;;;;;;5030986;28;20210;-64
2022/12/11 09:55:24;;;;;;;12.40;7.70;;;5.60;99.40;;;;;;5030431;28;20190;-64
2022/12/11 09:58:34;;;;;;;11.75;8.05;;;5.50;98.90;;;;;;5032055;28;20531;-64
2022/12/11 10:01:13;;;;;;;10.98;7.60;;;5.50;99.30;;;;;;5008565;28;20249;-64
2022/12/11 10:04:04;;;;;;;10.15;8.00;;;5.60;99.20;;;;;;5032193;28;20186;-65
2022/12/11 10:06:37;;;;;;;10.60;8.27;;;5.60;99.40;;;;;;5031114;28;20502;-65
2022/12/11 10:09:17;;;;;;;12.55;7.65;;;5.60;99.70;;;;;;5031195;28;20174;-65
2022/12/11 10:12:03;;;;;;;11.43;8.57;;;5.60;99.40;;;;;;5031358;28;20210;-65
2022/12/11 10:14:32;;;;;;;11.60;7.78;;;5.60;99.50;;;;;;5029071;28;20189;-65
2022/12/11 10:17:04;;;;;;;12.07;9.20;;;5.60;99.40;;;;;;5027527;28;20191;-65
2022/12/11 10:19:31;;;;;;;10.63;7.97;;;5.70;99.00;;;;;;5026311;28;20179;-65
2022/12/11 10:21:58;;;;;;;10.15;7.50;;;5.70;98.70;;;;;;5029774;28;20249;-66
2022/12/11 10:24:43;;;;;;;15.13;9.10;;;5.70;99.10;;;;;;5026225;28;20201;-65
2022/12/11 10:27:20;;;;;;;14.48;8.70;;;5.70;98.80;;;;;;5030242;28;20182;-65
2022/12/11 10:30:11;;;;;;;10.90;8.20;;;5.70;98.80;;;;;;5029291;28;20166;-65
2022/12/11 10:33:11;;;;;;;9.55;7.15;;;5.50;98.70;;;;;;5034582;28;20206;-65
2022/12/11 10:35:53;;;;;;;11.48;8.25;;;5.50;99.70;;;;;;5030054;28;20186;-66
2022/12/11 10:38:26;;;;;;;8.32;7.43;;;5.40;99.40;;;;;;5034117;28;20195;-65
2022/12/11 10:40:59;;;;;;;11.10;8.45;;;5.40;99.70;;;;;;5031560;28;20186;-67
2022/12/11 10:43:37;;;;;;;8.90;7.88;;;5.40;99.80;;;;;;5022940;28;20190;-68
2022/12/11 10:46:04;;;;;;;9.77;7.65;;;5.30;99.90;;;;;;5033918;28;20259;-65
2022/12/11 10:48:30;;;;;;;12.23;8.23;;;5.40;99.90;;;;;;5032945;28;20233;-65
2022/12/11 10:51:05;;;;;;;11.43;7.90;;;5.40;99.90;;;;;;5035334;28;20178;-65
2022/12/11 10:53:33;;;;;;;13.27;9.40;;;5.50;99.90;;;;;;5033467;28;20217;-65
2022/12/11 10:55:59;;;;;;;11.82;9.15;;;5.60;99.80;;;;;;5034412;28;20201;-66
2022/12/11 10:58:32;;;;;;;12.73;9.27;;;5.60;99.70;;;;;;5034290;28;20530;-65
2022/12/11 11:01:22;;;;;;;13.85;9.07;;;5.60;99.90;;;;;;5034343;28;20273;-65
2022/12/11 11:04:05;;;;;;;11.25;9.30;;;5.40;99.60;;;;;;5033470;28;20190;-65
2022/12/11 11:06:32;;;;;;;11.98;8.80;;;5.50;99.80;;;;;;5033209;28;20547;-65
2022/12/11 11:09:00;;;;;;;13.20;8.73;;;5.50;99.80;;;;;;5035000;28;20179;-64
2022/12/11 11:11:31;;;;;;;11.93;8.10;;;5.50;99.90;;;;;;5033154;28;20175;-65
2022/12/11 11:14:24;;;;;;;11.65;8.88;;;5.60;99.70;;;;;;5034092;28;20205;-65
2022/12/11 11:16:53;;;;;;;11.40;9.07;;;5.70;99.50;;;;;;5025869;28;20208;-66
2022/12/11 11:19:32;;;;;;;12.55;8.98;;;5.70;99.40;;;;;;5027227;28;20189;-66
2022/12/11 11:22:11;;;;;;;518.10;248.07;;;5.70;99.40;;;;;;5049089;28;20182;-64
2022/12/11 11:24:44;;;;;;;46.25;26.33;;;5.60;99.90;;;;;;5033925;28;20637;-64
2022/12/11 11:27:29;;;;;;;15.48;10.52;;;5.60;99.90;;;;;;5033352;28;20201;-65
2022/12/11 11:29:59;;;;;;;15.90;9.63;;;5.60;99.70;;;;;;5033875;28;20183;-65
2022/12/11 11:32:24;;;;;;;11.80;9.45;;;5.70;99.70;;;;;;5028006;28;20207;-66
2022/12/11 11:34:50;;;;;;;14.67;9.20;;;5.60;99.40;;;;;;5029799;28;20657;-65
2022/12/11 11:37:32;;;;;;;14.43;9.13;;;5.60;99.70;;;;;;5025540;28;20187;-67
2022/12/11 11:40:21;;;;;;;12.80;9.95;;;5.60;99.80;;;;;;5026594;28;20257;-65
2022/12/11 11:43:06;;;;;;;12.02;8.75;;;5.60;99.50;;;;;;5027397;28;20187;-65
2022/12/11 11:46:05;;;;;;;15.55;9.95;;;5.60;99.90;;;;;;5026738;28;20201;-65
2022/12/11 11:48:47;;;;;;;15.25;9.90;;;5.70;99.80;;;;;;5022785;28;20186;-65
2022/12/11 11:51:34;;;;;;;11.27;9.25;;;5.50;99.20;;;;;;5026879;28;20265;-65
2022/12/11 11:54:08;;;;;;;11.25;9.23;;;5.40;99.40;;;;;;5026899;28;20554;-65
2022/12/11 11:56:36;;;;;;;14.05;9.88;;;5.50;99.90;;;;;;5032537;28;20171;-65
2022/12/11 11:59:15;;;;;;;11.65;9.10;;;5.50;99.90;;;;;;5024580;28;20647;-65
2022/12/11 12:01:42;;;;;;;15.82;10.50;;;5.60;99.90;;;;;;5021723;28;20305;-69
2022/12/11 12:04:09;;;;;;;11.45;8.57;;;5.60;99.90;;;;;;5031003;28;20175;-65
2022/12/11 12:07:09;;;;;;;12.77;10.05;;;5.60;99.90;;;;;;5026652;28;20183;-65
2022/12/11 12:09:47;;;;;;;14.90;9.75;;;5.70;99.80;;;;;;5026064;28;20185;-65
2022/12/11 12:12:33;;;;;;;11.98;8.82;;;5.70;99.60;;;;;;5026280;28;20198;-65
2022/12/11 12:15:37;;;;;;;11.23;8.77;;;5.70;99.30;;;;;;5023356;28;20525;-64
2022/12/11 12:18:09;;;;;;;13.25;9.82;;;5.70;99.20;;;;;;5036426;28;20215;-65
2022/12/11 12:20:59;;;;;;;16.85;11.05;;;5.70;99.50;;;;;;5031574;28;20185;-65
2022/12/11 12:23:43;;;;;;;11.40;9.20;;;5.70;99.90;;;;;;5030758;28;20226;-65
2022/12/11 12:26:21;;;;;;;65.50;37.15;;;5.70;99.90;;;;;;5017008;28;20177;-64
2022/12/11 12:29:05;;;;;;;150.85;80.13;;;5.70;99.70;;;;;;5030810;28;20204;-64
2022/12/11 12:31:55;;;;;;;19.75;13.88;;;5.80;99.70;;;;;;5012333;28;20182;-67
2022/12/11 12:34:45;;;;;;;12.50;9.45;;;5.70;99.80;;;;;;5028751;28;20205;-66
2022/12/11 12:37:37;;;;;;;12.95;9.80;;;5.70;99.90;;;;;;5027534;28;20194;-66
2022/12/11 12:40:27;;;;;;;14.80;11.40;;;5.70;99.90;;;;;;5028698;28;20592;-66
2022/12/11 12:43:05;;;;;;;15.30;9.98;;;5.70;99.40;;;;;;5027315;28;20183;-70
2022/12/11 12:45:44;;;;;;;11.85;8.93;;;5.70;99.30;;;;;;5031677;28;20193;-66
2022/12/11 12:48:10;;;;;;;14.23;11.05;;;5.80;99.40;;;;;;5038797;28;20232;-67
2022/12/11 12:50:45;;;;;;;15.63;10.20;;;5.80;99.00;;;;;;5028370;28;20186;-67
2022/12/11 12:53:19;;;;;;;15.68;11.48;;;5.80;98.90;;;;;;5028726;28;20208;-68
2022/12/11 12:55:46;;;;;;;14.63;11.13;;;5.90;99.50;;;;;;5028587;28;20213;-67
2022/12/11 12:58:34;;;;;;;16.92;12.10;;;5.80;99.90;;;;;;5028142;28;20185;-71
2022/12/11 13:01:12;;;;;;;13.20;10.13;;;5.80;99.90;;;;;;5029431;28;20171;-67
2022/12/11 13:04:03;;;;;;;20.30;11.63;;;5.80;99.70;;;;;;5027686;28;20511;-68
2022/12/11 13:06:46;;;;;;;16.25;11.32;;;5.80;99.90;;;;;;5027959;28;20261;-69
2022/12/11 13:09:25;;;;;;;15.60;11.77;;;5.70;99.90;;;;;;5030488;28;20198;-66